Time;durP1;ratioP1;P1;durP2;ratioP2;P2;SDS_P1;SDS_P2;PMS_P1;PMS_P2;Temp;Humidity;BMP_temperature;BMP_pressure;BME280_temperature;BME280_humidity;BME280_pressure;Samples;Min_cycle;Max_cycle;Signal;HPM_P1;HPM_P2
2023/06/14 00:00:56;;;;;;;5.80;1.40;;;19.80;99.90;;;;;;4959079;28;20210;-93
2023/06/14 00:03:28;;;;;;;5.80;1.30;;;19.90;99.90;;;;;;4951206;29;20207;-93
2023/06/14 00:06:00;;;;;;;2.93;1.10;;;20.30;99.90;;;;;;4957349;29;20207;-92
2023/06/14 00:08:31;;;;;;;3.87;1.03;;;20.60;99.90;;;;;;4955936;29;20218;-92
2023/06/14 00:11:02;;;;;;;2.03;1.10;;;19.90;99.90;;;;;;4957736;29;20733;-92
2023/06/14 00:13:36;;;;;;;2.93;1.13;;;19.10;99.90;;;;;;4955525;29;20251;-92
2023/06/14 00:16:07;;;;;;;1.93;1.00;;;19.10;99.90;;;;;;4956278;28;20203;-92
2023/06/14 00:18:40;;;;;;;3.47;1.20;;;19.50;99.90;;;;;;4955645;28;20212;-91
2023/06/14 00:21:12;;;;;;;3.40;1.10;;;19.20;99.90;;;;;;4957397;29;20227;-91
2023/06/14 00:23:45;;;;;;;2.23;0.90;;;19.00;99.90;;;;;;4956979;28;20675;-92
2023/06/14 00:26:16;;;;;;;2.50;0.90;;;18.40;99.90;;;;;;4956907;29;20215;-91
2023/06/14 00:28:50;;;;;;;3.13;1.10;;;18.20;99.90;;;;;;4955597;29;20219;-91
2023/06/14 00:31:21;;;;;;;2.87;1.60;;;18.20;99.90;;;;;;4952754;28;20649;-90
2023/06/14 00:33:52;;;;;;;3.07;1.60;;;18.50;99.90;;;;;;4952605;28;20291;-94
2023/06/14 00:36:23;;;;;;;2.37;1.10;;;18.40;99.90;;;;;;4956839;29;20874;-91
2023/06/14 00:38:58;;;;;;;5.40;1.43;;;18.20;99.90;;;;;;4959250;28;20210;-95
2023/06/14 00:41:32;;;;;;;6.00;1.30;;;18.30;99.90;;;;;;4972075;29;20212;-96
2023/06/14 00:44:08;;;;;;;3.07;0.90;;;18.50;99.90;;;;;;4966434;29;20218;-96
2023/06/14 00:46:47;;;;;;;3.37;1.30;;;18.40;99.90;;;;;;4968137;28;20211;-96
2023/06/14 00:49:20;;;;;;;2.07;0.90;;;18.30;99.90;;;;;;4976602;28;20680;-96
2023/06/14 00:51:55;;;;;;;2.20;1.27;;;18.30;99.90;;;;;;4958295;29;20208;-96
2023/06/14 00:54:26;;;;;;;2.30;1.10;;;18.20;99.90;;;;;;4940359;29;20257;-90
2023/06/14 00:56:58;;;;;;;3.67;1.27;;;18.30;99.90;;;;;;4942117;29;20210;-90
2023/06/14 00:59:31;;;;;;;1.73;1.10;;;18.40;99.90;;;;;;4956172;29;20211;-91
2023/06/14 01:02:02;;;;;;;5.20;1.30;;;18.70;99.90;;;;;;4940591;29;20278;-92
2023/06/14 01:04:34;;;;;;;2.73;1.70;;;18.70;99.90;;;;;;4957758;29;20219;-91
2023/06/14 01:07:14;;;;;;;3.10;1.53;;;18.90;99.90;;;;;;4969843;29;20212;-92
2023/06/14 01:09:56;;;;;;;4.00;1.53;;;18.80;99.90;;;;;;4968661;28;20215;-91
2023/06/14 01:12:35;;;;;;;3.00;1.40;;;18.80;99.90;;;;;;4962830;28;20275;-91
2023/06/14 01:15:11;;;;;;;4.37;1.40;;;18.70;99.90;;;;;;4957251;29;20232;-93
2023/06/14 01:17:45;;;;;;;4.70;1.40;;;18.70;99.90;;;;;;4957937;28;20270;-91
2023/06/14 01:20:19;;;;;;;5.10;1.30;;;18.70;99.90;;;;;;4958026;28;20207;-91
2023/06/14 01:22:56;;;;;;;4.47;1.30;;;18.50;99.90;;;;;;4960827;29;20229;-92
2023/06/14 01:25:28;;;;;;;7.07;1.23;;;18.40;99.90;;;;;;4950030;29;20207;-91
2023/06/14 01:28:03;;;;;;;5.83;1.53;;;18.30;99.90;;;;;;4961060;29;20739;-91
2023/06/14 01:30:37;;;;;;;5.40;1.97;;;18.30;99.90;;;;;;4962322;29;20214;-93
2023/06/14 01:33:08;;;;;;;5.03;1.97;;;18.30;99.90;;;;;;4959581;28;20413;-91
2023/06/14 01:35:40;;;;;;;4.73;1.60;;;18.30;99.90;;;;;;4958760;28;20232;-92
2023/06/14 01:38:16;;;;;;;4.43;1.57;;;18.30;99.90;;;;;;4960088;29;20219;-92
2023/06/14 01:40:49;;;;;;;4.43;1.60;;;18.30;99.90;;;;;;4960069;28;20211;-92
2023/06/14 01:43:21;;;;;;;3.43;1.60;;;18.40;99.90;;;;;;4960433;29;20207;-94
2023/06/14 01:45:55;;;;;;;3.80;1.80;;;18.50;99.90;;;;;;4959877;29;20210;-92
2023/06/14 01:48:27;;;;;;;3.57;1.90;;;18.50;99.90;;;;;;4959380;29;20220;-92
2023/06/14 01:50:58;;;;;;;5.93;1.77;;;18.40;99.90;;;;;;4960290;28;20215;-92
2023/06/14 01:53:31;;;;;;;5.57;1.80;;;18.50;99.90;;;;;;4959885;29;20212;-91
2023/06/14 01:56:03;;;;;;;3.13;1.40;;;18.30;99.90;;;;;;4959858;29;20231;-91
2023/06/14 01:58:35;;;;;;;3.33;1.77;;;18.10;99.90;;;;;;4959209;29;20724;-91
2023/06/14 02:01:08;;;;;;;4.20;1.80;;;18.10;99.90;;;;;;4960629;29;20242;-92
2023/06/14 02:03:39;;;;;;;3.67;1.20;;;18.20;99.90;;;;;;4960758;28;20212;-91
2023/06/14 02:06:12;;;;;;;3.83;1.90;;;18.10;99.90;;;;;;4958844;29;20559;-91
2023/06/14 02:08:45;;;;;;;2.77;1.30;;;18.10;99.90;;;;;;4959625;29;20306;-91
2023/06/14 02:11:17;;;;;;;4.47;1.37;;;18.00;99.90;;;;;;4954132;29;20286;-91
2023/06/14 02:13:48;;;;;;;4.60;1.70;;;18.00;99.90;;;;;;4973838;29;20219;-91
2023/06/14 02:16:20;;;;;;;5.30;1.50;;;17.90;99.90;;;;;;4978457;28;20239;-90
2023/06/14 02:18:51;;;;;;;5.33;1.67;;;17.80;99.90;;;;;;4977989;28;20259;-91
2023/06/14 02:21:23;;;;;;;3.77;1.40;;;17.80;99.90;;;;;;4968927;29;20212;-92
2023/06/14 02:23:58;;;;;;;2.07;1.10;;;17.80;99.90;;;;;;4964627;29;20207;-92
2023/06/14 02:26:30;;;;;;;3.80;1.50;;;17.80;99.90;;;;;;4961976;29;20221;-91
2023/06/14 02:29:02;;;;;;;3.33;1.37;;;17.80;99.90;;;;;;4959594;29;20203;-92
2023/06/14 02:31:33;;;;;;;4.23;1.77;;;17.80;99.90;;;;;;4958899;29;20210;-92
2023/06/14 02:34:05;;;;;;;3.97;1.53;;;17.70;99.90;;;;;;4958272;29;20270;-92
2023/06/14 02:36:41;;;;;;;3.13;1.50;;;17.70;99.90;;;;;;4959170;29;20255;-93
2023/06/14 02:39:15;;;;;;;5.67;1.93;;;17.70;99.90;;;;;;4958546;28;20287;-91
2023/06/14 02:41:47;;;;;;;5.30;2.03;;;17.50;99.90;;;;;;4959381;29;20299;-92
2023/06/14 02:44:20;;;;;;;3.20;1.43;;;17.40;99.90;;;;;;4969672;29;20482;-91
2023/06/14 02:46:52;;;;;;;6.00;2.10;;;17.40;99.90;;;;;;4957566;29;20266;-92
2023/06/14 02:49:24;;;;;;;7.77;2.57;;;17.30;99.90;;;;;;4971844;28;20211;-93
2023/06/14 02:51:55;;;;;;;7.07;2.50;;;17.30;99.90;;;;;;4960458;29;20695;-92
2023/06/14 02:54:28;;;;;;;9.37;2.50;;;17.30;99.90;;;;;;4959126;29;20211;-91
2023/06/14 02:56:59;;;;;;;8.87;2.47;;;17.30;99.90;;;;;;4958461;29;20726;-91
2023/06/14 02:59:31;;;;;;;11.47;2.80;;;17.20;99.90;;;;;;4957682;29;20235;-90
2023/06/14 03:02:03;;;;;;;12.90;3.07;;;17.10;99.90;;;;;;4940939;28;20215;-92
2023/06/14 03:04:37;;;;;;;12.97;3.20;;;17.20;99.90;;;;;;4938298;29;20235;-91
2023/06/14 03:07:19;;;;;;;11.67;3.00;;;17.10;99.90;;;;;;4951440;29;20207;-90
2023/06/14 03:10:02;;;;;;;10.00;3.27;;;17.10;99.90;;;;;;4963039;29;20211;-91
2023/06/14 03:12:34;;;;;;;9.60;3.10;;;17.00;99.90;;;;;;4943548;28;20224;-92
2023/06/14 03:15:06;;;;;;;15.50;3.07;;;17.00;99.90;;;;;;4954369;28;20199;-91
2023/06/14 03:17:38;;;;;;;15.93;4.33;;;16.90;99.90;;;;;;4978051;28;20208;-91
2023/06/14 03:20:10;;;;;;;12.60;3.13;;;16.90;99.90;;;;;;4975315;28;20236;-92
2023/06/14 03:22:41;;;;;;;9.57;2.90;;;16.80;99.90;;;;;;4967231;28;20227;-91
2023/06/14 03:25:15;;;;;;;12.00;3.00;;;16.80;99.90;;;;;;4963175;28;20211;-92
2023/06/14 03:27:45;;;;;;;10.93;3.50;;;16.70;99.90;;;;;;4956598;28;20226;-92
2023/06/14 03:30:17;;;;;;;14.10;3.47;;;16.60;99.90;;;;;;4957405;29;20218;-92
2023/06/14 03:32:49;;;;;;;10.77;3.30;;;16.60;99.90;;;;;;4959194;28;20243;-92
2023/06/14 03:35:20;;;;;;;11.63;3.13;;;16.50;99.90;;;;;;4958700;28;20221;-92
2023/06/14 03:37:51;;;;;;;11.13;3.17;;;16.40;99.90;;;;;;4956057;29;20204;-92
2023/06/14 03:40:26;;;;;;;15.23;3.60;;;16.40;99.90;;;;;;4957381;28;20196;-89
2023/06/14 03:42:58;;;;;;;11.00;2.80;;;16.40;99.90;;;;;;4955577;28;21832;-96
2023/06/14 03:45:30;;;;;;;12.07;3.10;;;16.40;99.90;;;;;;4959304;28;20275;-92
2023/06/14 03:48:02;;;;;;;13.90;3.57;;;16.40;99.90;;;;;;4957082;28;20211;-92
2023/06/14 03:50:37;;;;;;;8.80;2.80;;;16.30;99.90;;;;;;4956144;29;20651;-92
2023/06/14 03:53:09;;;;;;;11.97;3.80;;;16.30;99.90;;;;;;4943668;29;20566;-93
2023/06/14 03:55:42;;;;;;;13.13;3.27;;;16.20;99.90;;;;;;4938479;29;20599;-92
2023/06/14 03:58:16;;;;;;;12.10;2.80;;;16.30;99.90;;;;;;4959031;29;20208;-93
2023/06/14 04:00:48;;;;;;;13.43;3.13;;;16.30;99.90;;;;;;4951400;29;20208;-92
2023/06/14 04:03:24;;;;;;;12.93;3.47;;;16.20;99.90;;;;;;4955597;29;20302;-93
2023/06/14 04:05:56;;;;;;;9.77;3.47;;;16.10;99.90;;;;;;4957283;28;20228;-91
2023/06/14 04:08:28;;;;;;;14.10;4.17;;;15.90;99.90;;;;;;4960474;28;20215;-92
2023/06/14 04:11:06;;;;;;;11.73;3.23;;;15.80;99.90;;;;;;4958096;28;20281;-92
2023/06/14 04:13:39;;;;;;;15.13;4.03;;;15.80;99.90;;;;;;4962420;28;20237;-92
2023/06/14 04:16:10;;;;;;;14.17;3.20;;;15.80;99.90;;;;;;4957615;28;20628;-91
2023/06/14 04:18:41;;;;;;;12.73;4.03;;;15.90;99.90;;;;;;4947493;28;20215;-91
2023/06/14 04:21:13;;;;;;;15.13;3.77;;;15.90;99.90;;;;;;4961038;28;20571;-92
2023/06/14 04:23:45;;;;;;;16.93;3.97;;;16.00;99.90;;;;;;4959240;28;20225;-92
2023/06/14 04:26:20;;;;;;;20.10;4.00;;;15.90;99.90;;;;;;4960982;28;20234;-91
2023/06/14 04:28:56;;;;;;;13.87;3.77;;;15.80;99.90;;;;;;4949860;28;20242;-92
2023/06/14 04:31:29;;;;;;;13.87;4.40;;;15.70;99.90;;;;;;4956678;28;20294;-93
2023/06/14 04:34:00;;;;;;;15.67;4.40;;;15.80;99.90;;;;;;4955725;28;20231;-93
2023/06/14 04:36:32;;;;;;;19.27;4.80;;;15.70;99.90;;;;;;4956304;29;20290;-92
2023/06/14 04:39:04;;;;;;;15.97;3.90;;;15.60;99.90;;;;;;4955575;28;20215;-91
2023/06/14 04:41:39;;;;;;;11.70;3.53;;;15.50;99.90;;;;;;4953355;29;20210;-92
2023/06/14 04:44:10;;;;;;;10.93;3.70;;;15.40;99.90;;;;;;4957781;28;20211;-92
2023/06/14 04:46:45;;;;;;;12.97;3.40;;;15.30;99.90;;;;;;4963230;29;20667;-92
2023/06/14 04:49:17;;;;;;;11.17;3.30;;;15.20;99.90;;;;;;4955309;29;20199;-93
2023/06/14 04:51:50;;;;;;;11.83;3.20;;;15.20;99.90;;;;;;4951874;29;20295;-92
2023/06/14 04:54:22;;;;;;;11.27;3.13;;;15.20;99.90;;;;;;4956807;28;20557;-92
2023/06/14 04:56:56;;;;;;;10.00;3.13;;;15.20;99.90;;;;;;4960050;28;20238;-92
2023/06/14 04:59:28;;;;;;;11.40;2.97;;;15.10;99.90;;;;;;4961422;29;20207;-92
2023/06/14 05:02:01;;;;;;;13.83;3.37;;;15.10;99.90;;;;;;4962126;29;20236;-90
2023/06/14 05:04:33;;;;;;;12.67;3.07;;;15.00;99.90;;;;;;4961432;29;20271;-91
2023/06/14 05:07:06;;;;;;;12.20;3.10;;;15.00;99.90;;;;;;4953390;28;20275;-92
2023/06/14 05:09:37;;;;;;;10.73;3.53;;;15.00;99.90;;;;;;4950968;29;20207;-92
2023/06/14 05:12:12;;;;;;;11.70;3.20;;;14.90;99.90;;;;;;4961815;28;20216;-92
2023/06/14 05:14:43;;;;;;;9.27;2.97;;;14.70;99.90;;;;;;4962245;28;20202;-92
2023/06/14 05:17:18;;;;;;;10.63;2.90;;;14.50;99.90;;;;;;4962076;28;20295;-92
2023/06/14 05:19:51;;;;;;;12.00;2.80;;;14.50;99.90;;;;;;4962856;28;20633;-93
2023/06/14 05:22:23;;;;;;;10.63;3.20;;;14.50;99.90;;;;;;4962796;28;20562;-94
2023/06/14 05:24:55;;;;;;;12.07;3.47;;;14.50;99.90;;;;;;4969875;28;20192;-92
2023/06/14 05:27:29;;;;;;;11.27;3.07;;;14.40;99.90;;;;;;4980806;28;20268;-93
2023/06/14 05:30:01;;;;;;;11.57;3.10;;;14.40;99.90;;;;;;4977855;28;20255;-89
2023/06/14 05:32:33;;;;;;;11.30;2.77;;;14.30;99.90;;;;;;4963976;28;20247;-93
2023/06/14 05:35:05;;;;;;;13.10;3.73;;;14.30;99.90;;;;;;4961773;29;20288;-92
2023/06/14 05:37:43;;;;;;;13.60;3.80;;;14.10;99.90;;;;;;4961925;29;20239;-93
2023/06/14 05:40:18;;;;;;;9.67;2.93;;;14.00;99.90;;;;;;4962923;28;20291;-93
2023/06/14 05:42:53;;;;;;;12.60;3.13;;;14.00;99.90;;;;;;4960730;28;20298;-94
2023/06/14 05:45:31;;;;;;;15.10;3.30;;;14.00;99.90;;;;;;4959185;29;20527;-94
2023/06/14 05:48:04;;;;;;;13.03;3.50;;;13.90;99.90;;;;;;4962319;29;20294;-92
2023/06/14 05:50:35;;;;;;;16.60;3.90;;;13.90;99.90;;;;;;4971428;29;20585;-93
2023/06/14 05:53:11;;;;;;;15.20;3.50;;;13.80;99.90;;;;;;4962627;29;20302;-93
2023/06/14 05:55:43;;;;;;;14.40;2.90;;;13.80;99.90;;;;;;4965990;28;20211;-91
2023/06/14 05:58:19;;;;;;;14.87;3.70;;;13.80;99.90;;;;;;4953352;29;20228;-92
2023/06/14 06:00:53;;;;;;;13.77;4.17;;;13.80;99.90;;;;;;4962516;28;20204;-92
2023/06/14 06:03:24;;;;;;;10.80;3.27;;;13.70;99.90;;;;;;4975440;28;20224;-92
2023/06/14 06:05:56;;;;;;;13.90;3.50;;;13.70;99.90;;;;;;4961829;29;20255;-92
2023/06/14 06:08:29;;;;;;;17.40;4.30;;;13.70;99.90;;;;;;4944527;29;20268;-91
2023/06/14 06:11:11;;;;;;;16.53;3.47;;;13.60;99.90;;;;;;4956245;29;20231;-91
2023/06/14 06:13:48;;;;;;;20.83;3.93;;;13.60;99.90;;;;;;4951996;29;20203;-90
2023/06/14 06:16:20;;;;;;;13.37;3.30;;;13.50;99.90;;;;;;4957963;28;20712;-91
2023/06/14 06:18:53;;;;;;;15.87;3.97;;;13.40;99.90;;;;;;4962486;29;20258;-91
2023/06/14 06:21:25;;;;;;;11.13;3.60;;;13.30;99.90;;;;;;4965143;29;20211;-94
2023/06/14 06:24:03;;;;;;;13.27;3.27;;;13.30;99.90;;;;;;4964788;29;20215;-91
2023/06/14 06:26:35;;;;;;;15.10;3.63;;;13.30;99.90;;;;;;4980063;28;20210;-92
2023/06/14 06:29:10;;;;;;;15.97;4.43;;;13.20;99.90;;;;;;4941347;29;20679;-91
2023/06/14 06:31:41;;;;;;;14.37;3.80;;;13.20;99.90;;;;;;4950158;29;20303;-91
2023/06/14 06:34:13;;;;;;;12.80;3.40;;;13.30;99.90;;;;;;4959039;28;20211;-92
2023/06/14 06:36:44;;;;;;;12.70;3.87;;;13.30;99.90;;;;;;4959915;28;20215;-93
2023/06/14 06:39:16;;;;;;;17.47;3.90;;;13.20;99.90;;;;;;4957676;29;20231;-92
2023/06/14 06:41:49;;;;;;;14.73;3.80;;;13.20;99.90;;;;;;4960018;29;20238;-93
2023/06/14 06:44:25;;;;;;;18.90;4.20;;;13.10;99.90;;;;;;4958712;29;20223;-92
2023/06/14 06:46:56;;;;;;;14.67;3.47;;;13.10;99.90;;;;;;4959313;28;20680;-92
2023/06/14 06:49:29;;;;;;;13.60;3.70;;;13.10;99.90;;;;;;4957767;28;20214;-91
2023/06/14 06:52:05;;;;;;;10.20;3.20;;;13.10;99.90;;;;;;4959566;29;20215;-92
2023/06/14 06:54:37;;;;;;;17.40;4.27;;;13.20;99.90;;;;;;4958718;29;20291;-93
2023/06/14 06:57:10;;;;;;;12.20;3.73;;;13.10;99.90;;;;;;4959939;28;20291;-92
2023/06/14 06:59:46;;;;;;;15.30;3.93;;;13.00;99.90;;;;;;4958415;28;20222;-93
2023/06/14 07:02:18;;;;;;;17.10;3.77;;;13.00;99.90;;;;;;4959242;28;20250;-92
2023/06/14 07:04:50;;;;;;;14.77;4.20;;;12.90;99.90;;;;;;4959202;28;20204;-93
2023/06/14 07:07:25;;;;;;;16.07;4.60;;;12.70;99.90;;;;;;4959935;28;20657;-92
2023/06/14 07:10:00;;;;;;;14.53;3.80;;;12.70;99.90;;;;;;4963932;29;20218;-92
2023/06/14 07:12:33;;;;;;;15.10;3.67;;;12.70;99.90;;;;;;4963056;28;20235;-92
2023/06/14 07:15:14;;;;;;;14.00;3.87;;;12.60;99.90;;;;;;4942537;29;20244;-93
2023/06/14 07:17:50;;;;;;;17.17;4.20;;;12.60;99.90;;;;;;4950063;29;20246;-91
2023/06/14 07:20:24;;;;;;;13.60;4.13;;;12.40;99.90;;;;;;4959229;29;20218;-92
2023/06/14 07:22:57;;;;;;;17.43;3.90;;;12.30;99.90;;;;;;4952541;29;20223;-92
2023/06/14 07:25:28;;;;;;;17.27;4.37;;;12.30;99.90;;;;;;4947463;29;20214;-92
2023/06/14 07:28:00;;;;;;;16.83;4.27;;;12.30;99.90;;;;;;4959043;28;20210;-92
2023/06/14 07:30:34;;;;;;;11.43;3.57;;;12.30;99.90;;;;;;4960572;29;20230;-91
2023/06/14 07:33:05;;;;;;;12.93;4.17;;;12.30;99.90;;;;;;4962350;28;20275;-93
2023/06/14 07:35:37;;;;;;;13.47;3.60;;;12.30;99.90;;;;;;4975691;28;20231;-90
2023/06/14 07:38:15;;;;;;;15.97;4.63;;;12.20;99.90;;;;;;4973447;28;20243;-92
2023/06/14 07:40:48;;;;;;;12.43;3.47;;;12.10;99.90;;;;;;4967719;28;20207;-91
2023/06/14 07:43:20;;;;;;;14.00;3.50;;;12.10;99.90;;;;;;4970139;29;20269;-92
2023/06/14 07:45:56;;;;;;;13.70;3.83;;;12.00;99.90;;;;;;4975026;29;20204;-91
2023/06/14 07:48:37;;;;;;;20.80;4.77;;;11.90;99.90;;;;;;4966344;29;20212;-91
2023/06/14 07:51:10;;;;;;;12.73;3.57;;;11.90;99.90;;;;;;4959990;28;20223;-93
2023/06/14 07:53:42;;;;;;;21.03;4.13;;;11.70;99.90;;;;;;4960716;28;20294;-92
2023/06/14 07:56:14;;;;;;;13.77;3.30;;;11.70;99.90;;;;;;4960673;28;20199;-92
2023/06/14 07:58:45;;;;;;;16.13;4.07;;;11.60;99.90;;;;;;4959045;29;20243;-93
2023/06/14 08:01:20;;;;;;;12.93;3.60;;;11.60;99.90;;;;;;4957837;29;20291;-93
2023/06/14 08:03:53;;;;;;;19.90;3.73;;;11.60;99.90;;;;;;4957991;29;20679;-90
2023/06/14 08:06:24;;;;;;;15.23;3.40;;;11.50;99.90;;;;;;4957355;29;20207;-92
2023/06/14 08:08:56;;;;;;;15.50;4.37;;;11.50;99.90;;;;;;4957293;29;20633;-92
2023/06/14 08:11:28;;;;;;;11.80;3.50;;;11.50;99.90;;;;;;4957444;28;20204;-92
2023/06/14 08:14:04;;;;;;;16.67;4.23;;;11.40;99.90;;;;;;4957322;28;20226;-91
2023/06/14 08:16:37;;;;;;;15.83;3.83;;;11.40;99.90;;;;;;4957736;28;20219;-93
2023/06/14 08:19:09;;;;;;;13.83;3.17;;;11.40;99.90;;;;;;4956844;28;20290;-90
2023/06/14 08:21:41;;;;;;;17.93;3.70;;;11.40;99.90;;;;;;4957735;28;20223;-91
2023/06/14 08:24:13;;;;;;;12.50;3.80;;;11.30;99.90;;;;;;4958017;29;20215;-91
2023/06/14 08:26:45;;;;;;;17.13;4.07;;;11.20;99.90;;;;;;4957573;29;20215;-91
2023/06/14 08:29:16;;;;;;;21.03;4.03;;;11.30;99.90;;;;;;4957393;28;20232;-92
2023/06/14 08:31:51;;;;;;;14.43;3.67;;;11.20;99.90;;;;;;4957941;28;20235;-91
2023/06/14 08:34:25;;;;;;;12.50;3.80;;;11.30;99.90;;;;;;4938648;29;20239;-92
2023/06/14 08:36:59;;;;;;;14.10;3.37;;;11.20;99.90;;;;;;4939820;29;20211;-93
2023/06/14 08:39:32;;;;;;;13.20;3.93;;;11.20;99.90;;;;;;4958805;29;20223;-91
2023/06/14 08:42:05;;;;;;;9.20;3.40;;;11.10;99.90;;;;;;4960645;28;20208;-91
2023/06/14 08:44:49;;;;;;;13.53;3.63;;;11.10;99.90;;;;;;4958079;28;20605;-92
2023/06/14 08:47:24;;;;;;;19.30;3.70;;;11.20;99.90;;;;;;4958117;28;20242;-91
2023/06/14 08:49:57;;;;;;;12.00;3.40;;;11.20;99.90;;;;;;4951684;29;20242;-92
2023/06/14 08:52:33;;;;;;;13.67;3.83;;;11.20;99.90;;;;;;4958174;28;20212;-91
2023/06/14 08:55:06;;;;;;;15.37;4.37;;;11.20;99.90;;;;;;4957631;28;20211;-92
2023/06/14 08:57:41;;;;;;;11.93;3.57;;;11.30;99.90;;;;;;4958904;28;20215;-91
2023/06/14 09:00:14;;;;;;;10.90;3.30;;;11.20;99.90;;;;;;4939046;29;20234;-92
2023/06/14 09:02:48;;;;;;;15.20;4.17;;;11.20;99.90;;;;;;4952513;29;20199;-90
2023/06/14 09:05:20;;;;;;;21.10;4.00;;;11.20;99.90;;;;;;4939537;29;20565;-92
2023/06/14 09:07:54;;;;;;;13.60;3.77;;;11.30;99.90;;;;;;4954993;29;20700;-91
2023/06/14 09:10:26;;;;;;;11.60;3.40;;;11.20;99.90;;;;;;4942852;29;20619;-92
2023/06/14 09:13:02;;;;;;;13.53;3.80;;;11.20;99.90;;;;;;4958218;28;20575;-91
2023/06/14 09:15:34;;;;;;;14.83;3.37;;;11.20;99.90;;;;;;4957928;28;20254;-91
2023/06/14 09:18:08;;;;;;;14.83;3.47;;;11.20;99.90;;;;;;4956867;28;20986;-92
2023/06/14 09:20:39;;;;;;;14.37;4.10;;;11.20;99.90;;;;;;4957139;28;20232;-93
2023/06/14 09:23:13;;;;;;;16.43;3.30;;;11.20;99.90;;;;;;4957428;29;20266;-91
2023/06/14 09:25:48;;;;;;;15.20;3.40;;;11.20;99.90;;;;;;4956416;29;20216;-91
2023/06/14 09:28:22;;;;;;;10.73;3.63;;;11.20;99.90;;;;;;4956642;28;20714;-89
2023/06/14 09:30:54;;;;;;;18.23;3.37;;;11.20;99.90;;;;;;4956761;28;20200;-91
2023/06/14 09:33:28;;;;;;;18.80;4.60;;;11.10;99.90;;;;;;4956443;28;20219;-92
2023/06/14 09:36:00;;;;;;;17.00;4.27;;;11.20;99.90;;;;;;4957467;29;20211;-93
2023/06/14 09:38:31;;;;;;;16.93;3.10;;;11.20;99.90;;;;;;4956423;28;20315;-93
2023/06/14 09:41:09;;;;;;;15.47;4.00;;;11.10;99.90;;;;;;4957534;28;20247;-92
2023/06/14 09:43:41;;;;;;;12.30;3.30;;;11.20;99.90;;;;;;4960340;28;20199;-91
2023/06/14 09:46:16;;;;;;;12.10;2.90;;;11.20;99.90;;;;;;4961199;28;20226;-91
2023/06/14 09:48:50;;;;;;;14.80;3.40;;;11.20;99.90;;;;;;4965870;28;20653;-92
2023/06/14 09:51:24;;;;;;;12.67;3.13;;;11.20;99.90;;;;;;4977830;28;20227;-91
2023/06/14 09:54:01;;;;;;;11.23;3.87;;;11.20;99.90;;;;;;4976501;29;20267;-92
2023/06/14 09:56:43;;;;;;;15.87;3.67;;;11.20;99.90;;;;;;4950074;29;20214;-92
2023/06/14 09:59:17;;;;;;;13.20;3.30;;;11.20;99.90;;;;;;4961827;29;20319;-91
2023/06/14 10:01:50;;;;;;;16.33;4.00;;;11.20;99.90;;;;;;4960948;28;20203;-93
2023/06/14 10:04:25;;;;;;;13.53;3.07;;;11.30;99.90;;;;;;4960822;28;20208;-91
2023/06/14 10:06:56;;;;;;;12.47;2.83;;;11.30;99.90;;;;;;4945864;29;20219;-91
2023/06/14 10:09:29;;;;;;;14.87;3.93;;;11.30;99.90;;;;;;4958890;29;20239;-92
2023/06/14 10:12:03;;;;;;;14.47;3.27;;;11.30;99.90;;;;;;4959721;28;20211;-91
2023/06/14 10:14:36;;;;;;;11.13;3.13;;;11.30;99.90;;;;;;4959818;28;20215;-91
2023/06/14 10:17:11;;;;;;;13.17;3.60;;;11.30;99.90;;;;;;4960454;28;20207;-92
2023/06/14 10:19:53;;;;;;;12.90;3.20;;;11.30;99.90;;;;;;4957403;29;20257;-91
2023/06/14 10:22:32;;;;;;;16.50;3.63;;;11.40;99.90;;;;;;4958554;29;20724;-93
2023/06/14 10:25:14;;;;;;;14.50;3.43;;;11.40;99.90;;;;;;4959532;28;20605;-93
2023/06/14 10:27:47;;;;;;;12.40;2.93;;;11.50;99.90;;;;;;4958834;28;20591;-94
2023/06/14 10:30:19;;;;;;;11.60;3.07;;;11.40;99.90;;;;;;4958741;28;20215;-92
2023/06/14 10:33:10;;;;;;;13.00;3.60;;;11.40;99.90;;;;;;4959326;28;20208;-92
2023/06/14 10:35:45;;;;;;;18.77;3.93;;;11.30;99.90;;;;;;4959191;29;20304;-91
2023/06/14 10:38:16;;;;;;;16.63;4.13;;;11.30;99.90;;;;;;4958130;29;20243;-91
2023/06/14 10:40:56;;;;;;;14.50;4.20;;;11.40;99.90;;;;;;4953756;29;20254;-92
2023/06/14 10:43:27;;;;;;;19.07;3.73;;;11.30;99.90;;;;;;4961578;28;20218;-92
2023/06/14 10:46:17;;;;;;;14.50;3.27;;;11.30;99.90;;;;;;4976852;28;20221;-92
2023/06/14 10:48:48;;;;;;;14.97;3.90;;;11.50;99.90;;;;;;4956823;29;20212;-93
2023/06/14 10:51:22;;;;;;;16.53;3.57;;;11.40;99.90;;;;;;4958730;29;20218;-93
2023/06/14 10:53:54;;;;;;;17.37;3.90;;;11.30;99.90;;;;;;4958714;28;20211;-92
2023/06/14 10:56:33;;;;;;;17.97;3.87;;;11.40;99.90;;;;;;4958455;29;20229;-91
2023/06/14 10:59:05;;;;;;;12.30;3.23;;;11.40;99.90;;;;;;4957388;29;20207;-92
2023/06/14 11:01:43;;;;;;;13.90;3.57;;;11.30;99.90;;;;;;4958727;28;20305;-92
2023/06/14 11:04:15;;;;;;;19.13;4.17;;;11.30;99.90;;;;;;4958643;28;20231;-93
2023/06/14 11:06:57;;;;;;;15.93;3.23;;;11.30;99.90;;;;;;4957399;29;20649;-91
2023/06/14 11:09:54;;;;;;;13.87;3.70;;;11.30;99.90;;;;;;4953542;29;20208;-90
2023/06/14 11:12:26;;;;;;;15.60;3.30;;;11.20;99.90;;;;;;4950601;29;20207;-92
2023/06/14 11:14:58;;;;;;;12.13;3.23;;;11.30;99.90;;;;;;4959114;29;20215;-92
2023/06/14 11:17:30;;;;;;;17.07;3.10;;;11.30;99.90;;;;;;4957910;29;20295;-92
2023/06/14 11:20:15;;;;;;;17.47;3.83;;;11.20;99.90;;;;;;4958088;29;20224;-93
2023/06/14 11:22:54;;;;;;;13.23;3.40;;;11.20;99.90;;;;;;4941356;29;20645;-93
2023/06/14 11:25:26;;;;;;;14.33;3.37;;;11.20;99.90;;;;;;4958232;28;20429;-92
2023/06/14 11:27:58;;;;;;;11.67;3.37;;;11.30;99.90;;;;;;4957691;28;20319;-92
2023/06/14 11:30:29;;;;;;;15.53;3.77;;;11.30;99.90;;;;;;4958110;28;20207;-91
2023/06/14 11:33:01;;;;;;;13.60;3.50;;;11.30;99.90;;;;;;4958123;28;20215;-92
2023/06/14 11:35:33;;;;;;;15.60;3.70;;;11.30;99.90;;;;;;4958044;28;20210;-91
2023/06/14 11:38:06;;;;;;;14.90;3.63;;;11.20;99.90;;;;;;4957786;28;20258;-92
2023/06/14 11:40:40;;;;;;;10.80;3.13;;;11.20;99.90;;;;;;4957564;29;20231;-93
2023/06/14 11:43:13;;;;;;;12.93;3.47;;;11.20;99.90;;;;;;4958105;28;20208;-91
2023/06/14 11:45:44;;;;;;;15.20;3.93;;;11.20;99.90;;;;;;4958478;28;20233;-91
2023/06/14 11:48:39;;;;;;;15.40;2.90;;;11.20;99.90;;;;;;4957055;29;20224;-91
2023/06/14 11:51:11;;;;;;;13.43;3.50;;;11.20;99.90;;;;;;4958409;29;20298;-92
2023/06/14 11:53:45;;;;;;;16.43;3.30;;;11.20;99.90;;;;;;4957741;29;20211;-92
2023/06/14 11:56:17;;;;;;;13.23;3.80;;;11.20;99.90;;;;;;4969698;28;20203;-93
2023/06/14 11:58:49;;;;;;;14.40;3.53;;;11.30;99.90;;;;;;4977207;28;20187;-92
2023/06/14 12:01:21;;;;;;;9.13;3.03;;;11.20;99.90;;;;;;4975407;28;20237;-93
2023/06/14 12:03:55;;;;;;;14.67;3.50;;;11.20;99.90;;;;;;4959319;28;20215;-93
2023/06/14 12:06:32;;;;;;;13.63;3.90;;;11.20;99.90;;;;;;4953466;29;20242;-91
2023/06/14 12:09:12;;;;;;;18.77;3.70;;;11.30;99.90;;;;;;4956173;29;20213;-92
2023/06/14 12:11:45;;;;;;;19.03;4.27;;;11.20;99.90;;;;;;4938970;29;20307;-93
2023/06/14 12:14:17;;;;;;;10.97;3.23;;;11.30;99.90;;;;;;4938689;29;20218;-91
2023/06/14 12:16:49;;;;;;;13.07;3.60;;;11.30;99.90;;;;;;4938229;29;20231;-92
2023/06/14 12:19:21;;;;;;;14.03;3.70;;;11.40;99.90;;;;;;4937993;29;20246;-92
2023/06/14 12:21:52;;;;;;;14.80;4.07;;;11.30;99.90;;;;;;4956440;29;20243;-92
2023/06/14 12:24:31;;;;;;;14.60;3.80;;;11.30;99.90;;;;;;4957827;28;20203;-92
2023/06/14 12:27:03;;;;;;;15.47;4.20;;;11.30;99.90;;;;;;4956716;29;20211;-92
2023/06/14 12:29:35;;;;;;;13.07;3.20;;;11.30;99.90;;;;;;4956510;28;20270;-92
2023/06/14 12:32:07;;;;;;;15.93;3.93;;;11.30;99.90;;;;;;4957483;28;20720;-92
2023/06/14 12:34:40;;;;;;;16.07;3.70;;;11.30;99.90;;;;;;4957740;28;20215;-93
2023/06/14 12:37:12;;;;;;;13.13;3.87;;;11.40;99.90;;;;;;4961991;28;20283;-92
2023/06/14 12:39:46;;;;;;;21.03;4.20;;;11.40;99.90;;;;;;4967154;28;20295;-92
2023/06/14 12:42:18;;;;;;;10.70;3.67;;;11.30;99.90;;;;;;4960520;28;20277;-92
2023/06/14 12:44:50;;;;;;;15.10;3.80;;;11.40;99.90;;;;;;4959563;28;20211;-92
2023/06/14 12:47:21;;;;;;;18.80;4.17;;;11.40;99.90;;;;;;4958944;28;20218;-92
2023/06/14 12:49:53;;;;;;;16.87;4.10;;;11.50;99.90;;;;;;4958329;28;20242;-92
2023/06/14 12:52:24;;;;;;;13.47;3.70;;;11.40;99.90;;;;;;4958940;28;20224;-92
2023/06/14 12:54:58;;;;;;;16.97;4.20;;;11.40;99.90;;;;;;4957885;29;20200;-92
2023/06/14 12:57:30;;;;;;;16.33;3.73;;;11.40;99.90;;;;;;4961149;28;20246;-92
2023/06/14 13:00:05;;;;;;;16.60;3.90;;;11.50;99.90;;;;;;4958559;28;20231;-92
2023/06/14 13:02:37;;;;;;;19.17;4.30;;;11.50;99.90;;;;;;4960341;28;20254;-92
2023/06/14 13:05:09;;;;;;;18.30;4.00;;;11.60;99.90;;;;;;4959665;28;20271;-90
2023/06/14 13:07:41;;;;;;;26.43;4.93;;;11.50;99.90;;;;;;4960430;28;20231;-91
2023/06/14 13:10:18;;;;;;;14.20;3.67;;;11.50;99.90;;;;;;4963701;28;20278;-92